Alice, Texas
Current Conditions -  °F | °C
As of 12:53 PM on Thursday 23 Oct 2014 (Local Time) from KALI Reporting Station
Clear Clear  
Wind Chill: 81°   Ceiling: Unl
Heat Index: 82°   Visibility: 10mi
Dew Point: 60°   Wind: 3mph
Humidity: 49%   Direction: 50°NE
Pressure: 30.1"   Gusts: NA
Location:  27.75°N, 98.06°W
Report Text: KALI 231753Z AUTO 05003KT 10SM CLR 27/16 A3010 RMK AO2 SLP191 T02720156 10272 20178 58003
Loading
Personal Weather Stations






























Interactive Weather Map
Tropical Storm Tracking
New forecast layout! Learn more

10-Day Weather Forecast

Advertisements
Track Severe Weather on mobile